Time;durP1;ratioP1;P1;durP2;ratioP2;P2;SDS_P1;SDS_P2;PMS_P1;PMS_P2;Temp;Humidity;BMP_temperature;BMP_pressure;BME280_temperature;BME280_humidity;BME280_pressure;Samples;Min_cycle;Max_cycle;Signal;HPM_P1;HPM_P2
2022/08/05 00:00:45;;;;;;;;;2.75;2.00;;;;;20.29;66.02;101295.47;5058296;28;47406;-76
2022/08/05 00:03:10;;;;;;;;;4.50;4.00;;;;;20.24;65.86;101305.47;5057818;28;46580;-76
2022/08/05 00:05:36;;;;;;;;;3.00;3.00;;;;;20.01;65.59;101275.16;5075717;28;45227;-76
2022/08/05 00:08:01;;;;;;;;;3.25;3.25;;;;;19.86;66.61;101258.44;5077845;28;60430;-76
2022/08/05 00:10:26;;;;;;;;;3.00;3.00;;;;;19.83;66.89;101235.69;5077454;28;69234;-76
2022/08/05 00:12:52;;;;;;;;;3.00;3.00;;;;;19.76;67.87;101271.34;5078059;28;45452;-76
2022/08/05 00:15:17;;;;;;;;;6.75;3.00;;;;;19.67;66.72;101307.03;5078354;28;45256;-76
2022/08/05 00:17:42;;;;;;;;;4.25;3.00;;;;;19.64;67.17;101356.53;5077923;28;45378;-77
2022/08/05 00:20:08;;;;;;;;;3.50;3.50;;;;;19.52;67.03;101376.59;5077280;28;69475;-77
2022/08/05 00:22:35;;;;;;;;;4.00;2.50;;;;;19.47;67.65;101403.22;5078069;28;46558;-77
2022/08/05 00:25:00;;;;;;;;;3.75;2.00;;;;;19.44;66.73;101442.97;5077674;28;45302;-78
2022/08/05 00:27:27;;;;;;;;;2.75;2.00;;;;;19.38;67.46;101439.84;5078276;28;45387;-77
2022/08/05 00:29:52;;;;;;;;;2.75;2.75;;;;;19.42;68.54;101365.66;5077931;28;45381;-76
2022/08/05 00:32:17;;;;;;;;;6.75;4.00;;;;;19.47;69.06;101339.84;5061124;28;74731;-77
2022/08/05 00:34:44;;;;;;;;;4.50;4.00;;;;;19.62;67.84;101355.78;5057607;28;51079;-76
2022/08/05 00:37:09;;;;;;;;;4.00;2.50;;;;;19.66;67.12;101318.53;5057646;28;46083;-76
2022/08/05 00:39:35;;;;;;;;;4.00;4.00;;;;;19.68;67.90;101355.41;5057691;28;45455;-77
2022/08/05 00:42:00;;;;;;;;;3.75;3.00;;;;;19.63;66.67;101447.25;5057000;28;58875;-77
2022/08/05 00:44:25;;;;;;;;;2.00;2.00;;;;;19.55;66.88;101450.31;5056559;28;61859;-77
2022/08/05 00:46:50;;;;;;;;;6.50;4.25;;;;;19.50;67.71;101402.19;5056699;28;68753;-77
2022/08/05 00:49:19;;;;;;;;;4.25;3.75;;;;;19.54;68.54;101343.84;5056372;28;68955;-77
2022/08/05 00:51:45;;;;;;;;;6.00;4.00;;;;;19.57;69.01;101419.41;5056331;28;45376;-77
2022/08/05 00:54:11;;;;;;;;;5.25;3.75;;;;;19.51;67.79;101388.06;5057335;28;45663;-77
2022/08/05 00:56:36;;;;;;;;;7.50;4.50;;;;;19.50;67.98;101360.81;5057394;28;45396;-76
2022/08/05 00:59:02;;;;;;;;;3.75;3.00;;;;;19.52;68.00;101351.03;5057220;28;45368;-76
2022/08/05 01:01:27;;;;;;;;;2.50;2.50;;;;;19.57;69.03;101363.94;5057271;28;45408;-76
2022/08/05 01:03:53;;;;;;;;;5.00;3.00;;;;;19.58;68.79;101386.78;5060022;28;58904;-76
2022/08/05 01:06:18;;;;;;;;;4.25;4.25;;;;;19.56;68.35;101378.09;5077689;28;45436;-77
2022/08/05 01:08:44;;;;;;;;;4.00;3.00;;;;;19.54;69.01;101357.06;5077715;28;45354;-76
2022/08/05 01:11:17;;;;;;;;;2.75;2.25;;;;;19.60;68.29;101384.06;5076711;28;61034;-76
2022/08/05 01:13:59;;;;;;;;;4.25;4.00;;;;;19.58;68.55;101391.22;5059029;28;45549;-76
2022/08/05 01:16:33;;;;;;;;;4.00;3.00;;;;;19.61;68.97;101370.75;5059434;28;45332;-76
2022/08/05 01:19:08;;;;;;;;;3.50;3.00;;;;;19.59;68.29;101374.44;5059224;28;45525;-76
2022/08/05 01:21:52;;;;;;;;;5.00;4.00;;;;;19.64;68.44;101388.22;5059203;28;45379;-77
2022/08/05 01:24:39;;;;;;;;;6.50;4.00;;;;;19.62;67.56;101390.09;5076970;27;45937;-75
2022/08/05 01:27:23;;;;;;;;;6.00;3.75;;;;;19.54;68.73;101375.53;5077139;28;45375;-77
2022/08/05 01:29:51;;;;;;;;;3.00;3.00;;;;;19.52;67.78;101366.03;5076815;28;45507;-77
2022/08/05 01:32:20;;;;;;;;;6.25;3.50;;;;;19.56;67.61;101353.47;5043639;28;45916;-77
2022/08/05 01:35:14;;;;;;;;;4.50;3.00;;;;;19.59;67.82;101338.28;5038933;28;45758;-76
2022/08/05 01:37:49;;;;;;;;;6.00;3.00;;;;;19.63;69.04;101318.72;5036544;28;45586;-77
2022/08/05 01:40:16;;;;;;;;;7.00;4.75;;;;;19.64;69.24;101307.19;5038808;28;45389;-76
2022/08/05 01:42:43;;;;;;;;;7.00;4.25;;;;;19.71;68.38;101298.00;5038312;28;46558;-76
2022/08/05 01:45:09;;;;;;;;;6.50;3.00;;;;;19.68;67.85;101278.81;5056698;28;45421;-77
2022/08/05 01:47:35;;;;;;;;;3.50;2.50;;;;;19.72;67.60;101290.91;5038770;28;45445;-76
2022/08/05 01:50:07;;;;;;;;;5.50;4.00;;;;;19.65;69.21;101295.72;5056558;28;45492;-76
2022/08/05 01:52:35;;;;;;;;;3.75;3.00;;;;;19.58;68.09;101326.06;5038370;28;47226;-77
2022/08/05 01:55:04;;;;;;;;;6.00;4.25;;;;;19.57;68.73;101326.13;5038355;28;45770;-76
2022/08/05 01:57:34;;;;;;;;;2.50;2.50;;;;;19.53;67.76;101357.97;5038227;28;45514;-76
2022/08/05 02:00:02;;;;;;;;;4.25;3.00;;;;;19.44;67.46;101342.66;5038528;28;45447;-76
2022/08/05 02:02:28;;;;;;;;;5.75;3.50;;;;;19.49;68.58;101322.13;5037871;28;45547;-77
2022/08/05 02:04:57;;;;;;;;;4.00;2.25;;;;;19.56;68.31;101301.53;5049836;28;45757;-77
2022/08/05 02:07:23;;;;;;;;;3.50;3.00;;;;;19.56;68.40;101287.44;5058552;28;45403;-77
2022/08/05 02:09:49;;;;;;;;;5.00;3.25;;;;;19.49;67.64;101277.25;5075591;28;69430;-77
2022/08/05 02:12:26;;;;;;;;;3.00;3.00;;;;;19.53;67.96;101305.19;5076146;28;45405;-76
2022/08/05 02:14:59;;;;;;;;;4.75;4.00;;;;;19.43;68.29;101333.06;5076514;28;45473;-76
2022/08/05 02:17:32;;;;;;;;;5.00;3.25;;;;;19.31;67.18;101317.91;5058070;28;45414;-76
2022/08/05 02:20:00;;;;;;;;;3.00;3.00;;;;;19.28;69.22;101324.22;5058201;28;45623;-76
2022/08/05 02:22:29;;;;;;;;;4.00;3.50;;;;;19.23;68.58;101313.06;5058170;28;45422;-76
2022/08/05 02:25:01;;;;;;;;;5.50;4.25;;;;;19.14;68.04;101321.50;5065684;28;45362;-77
2022/08/05 02:27:27;;;;;;;;;3.25;3.25;;;;;19.10;68.48;101338.44;5074799;28;45483;-76
2022/08/05 02:29:55;;;;;;;;;2.25;2.25;;;;;19.09;68.53;101366.63;5076071;28;45457;-77
2022/08/05 02:32:20;;;;;;;;;2.50;2.00;;;;;19.05;68.25;101372.13;5075335;27;68531;-77
2022/08/05 02:34:45;;;;;;;;;6.75;3.00;;;;;18.98;68.65;101366.34;5109308;27;45442;-76
2022/08/05 02:37:13;;;;;;;;;4.00;4.00;;;;;19.02;68.50;101362.59;5075528;28;60911;-77
2022/08/05 02:39:39;;;;;;;;;4.00;4.00;;;;;19.04;69.16;101370.44;5109000;27;45382;-76
2022/08/05 02:42:07;;;;;;;;;3.75;3.00;;;;;18.99;68.26;101375.09;5074445;28;45891;-76
2022/08/05 02:44:35;;;;;;;;;3.25;3.25;;;;;18.97;68.74;101379.63;5108885;27;45516;-76
2022/08/05 02:47:02;;;;;;;;;4.00;2.25;;;;;18.99;68.39;101372.47;5074688;28;45501;-76
2022/08/05 02:49:32;;;;;;;;;3.00;3.00;;;;;18.93;67.77;101344.63;5074684;28;45437;-76
2022/08/05 02:51:57;;;;;;;;;3.50;3.50;;;;;18.95;68.21;101335.69;5108838;27;46592;-76
2022/08/05 02:54:24;;;;;;;;;4.00;3.00;;;;;19.02;67.83;101323.03;5074995;28;65983;-76
2022/08/05 02:56:50;;;;;;;;;3.00;3.00;;;;;19.05;68.74;101299.09;5075656;28;45398;-76
2022/08/05 02:59:16;;;;;;;;;6.25;3.50;;;;;19.04;68.27;101271.03;5108145;27;57458;-76
2022/08/05 03:01:41;;;;;;;;;4.00;4.00;;;;;19.02;68.66;101278.19;5107929;27;60796;-76
2022/08/05 03:04:10;;;;;;;;;5.00;3.50;;;;;19.06;68.57;101302.63;5075464;27;45308;-76
2022/08/05 03:06:36;;;;;;;;;2.00;2.00;;;;;19.12;68.47;101337.41;5074497;28;45446;-76
2022/08/05 03:09:03;;;;;;;;;3.00;3.00;;;;;19.10;68.74;101338.44;5075139;28;60149;-76
2022/08/05 03:11:28;;;;;;;;;5.25;4.50;;;;;19.07;68.07;101346.50;5073926;28;45483;-76
2022/08/05 03:13:54;;;;;;;;;5.00;3.75;;;;;19.00;68.03;101338.09;5076881;28;45373;-76
2022/08/05 03:16:19;;;;;;;;;5.00;3.25;;;;;18.99;68.52;101349.56;5078517;28;65889;-76
2022/08/05 03:18:45;;;;;;;;;4.00;4.00;;;;;19.09;68.77;101345.50;5095012;27;45447;-76
2022/08/05 03:21:11;;;;;;;;;3.00;3.00;;;;;19.12;68.46;101341.84;5078962;27;46108;-76
2022/08/05 03:23:38;;;;;;;;;5.25;3.75;;;;;19.11;68.35;101335.72;5079106;28;45409;-76
2022/08/05 03:26:04;;;;;;;;;5.50;3.25;;;;;19.10;68.36;101334.00;5079018;28;45519;-76
2022/08/05 03:28:30;;;;;;;;;4.00;3.00;;;;;19.07;67.57;101342.06;5061292;28;45361;-76
2022/08/05 03:30:58;;;;;;;;;4.50;4.00;;;;;18.99;68.46;101336.38;5078875;28;45545;-77
2022/08/05 03:33:26;;;;;;;;;4.00;4.00;;;;;18.97;68.04;101327.69;5061213;28;45802;-76
2022/08/05 03:35:52;;;;;;;;;3.00;3.00;;;;;19.02;68.14;101338.88;5094924;27;45342;-76
2022/08/05 03:38:18;;;;;;;;;3.25;3.25;;;;;19.02;68.12;101341.50;5094637;27;45342;-76
2022/08/05 03:40:45;;;;;;;;;3.75;3.00;;;;;19.01;68.58;101334.50;5078433;28;46095;-77
2022/08/05 03:43:10;;;;;;;;;5.00;4.00;;;;;19.07;68.66;101336.81;5078770;28;45748;-76
2022/08/05 03:45:36;;;;;;;;;6.00;3.00;;;;;19.09;68.18;101339.34;5078867;28;45461;-76
2022/08/05 03:48:01;;;;;;;;;4.00;3.00;;;;;19.11;68.20;101350.69;5077836;28;70155;-76
2022/08/05 03:50:49;;;;;;;;;4.25;4.25;;;;;19.17;68.35;101347.72;5077846;28;68188;-76
2022/08/05 03:53:22;;;;;;;;;4.00;4.00;;;;;19.18;67.94;101354.69;5078315;28;45239;-76
2022/08/05 03:56:09;;;;;;;;;9.50;5.00;;;;;19.20;68.16;101351.97;5060708;28;45474;-76
2022/08/05 03:58:35;;;;;;;;;5.00;5.00;;;;;19.14;67.50;101351.34;5060567;28;45424;-76
2022/08/05 04:01:03;;;;;;;;;4.25;3.00;;;;;19.09;67.77;101356.06;5060283;28;45443;-76
2022/08/05 04:03:34;;;;;;;;;5.00;4.00;;;;;19.07;68.33;101351.78;5094303;27;45832;-75
2022/08/05 04:06:00;;;;;;;;;6.25;4.00;;;;;19.09;67.90;101350.78;5061100;28;45238;-76
2022/08/05 04:08:26;;;;;;;;;4.25;3.25;;;;;19.08;67.87;101348.22;5078349;28;45447;-76
2022/08/05 04:10:51;;;;;;;;;7.25;3.75;;;;;19.14;67.76;101358.44;5078222;28;46182;-76
2022/08/05 04:13:17;;;;;;;;;6.25;3.75;;;;;19.01;66.66;101344.22;5060248;28;45368;-76
2022/08/05 04:15:44;;;;;;;;;4.75;4.25;;;;;19.01;67.73;101345.06;5078421;28;45285;-76
2022/08/05 04:18:10;;;;;;;;;3.00;2.75;;;;;19.04;68.06;101350.19;5060233;28;45500;-76
2022/08/05 04:20:35;;;;;;;;;3.50;3.00;;;;;19.06;67.47;101347.47;5077268;28;71106;-76
2022/08/05 04:23:01;;;;;;;;;6.00;4.00;;;;;19.04;67.25;101351.97;5077676;28;45374;-76
2022/08/05 04:25:26;;;;;;;;;4.00;4.00;;;;;18.99;67.83;101343.44;5077882;27;45449;-76
2022/08/05 04:27:51;;;;;;;;;4.75;3.25;;;;;18.99;68.07;101351.38;5077393;28;61185;-76
2022/08/05 04:30:16;;;;;;;;;2.00;2.00;;;;;19.00;67.28;101343.38;5077932;28;45422;-76
2022/08/05 04:32:42;;;;;;;;;8.25;4.00;;;;;19.05;67.40;101343.94;5058017;28;71996;-76
2022/08/05 04:35:07;;;;;;;;;5.00;4.25;;;;;18.99;66.57;101344.28;5056910;28;68097;-76
2022/08/05 04:37:33;;;;;;;;;4.00;3.00;;;;;18.98;66.88;101352.28;5057369;28;45550;-76
2022/08/05 04:39:58;;;;;;;;;5.00;5.00;;;;;18.92;67.12;101337.66;5057639;28;46078;-76
2022/08/05 04:42:23;;;;;;;;;5.75;4.00;;;;;18.91;66.36;101341.25;5057434;28;45606;-76
2022/08/05 04:44:49;;;;;;;;;5.00;4.00;;;;;18.90;68.11;101343.00;5056865;28;69541;-77
2022/08/05 04:47:14;;;;;;;;;8.75;4.00;;;;;18.91;66.47;101355.28;5056720;28;62576;-76
2022/08/05 04:49:40;;;;;;;;;3.25;3.25;;;;;18.89;67.16;101364.22;5057380;28;45403;-76
2022/08/05 04:52:05;;;;;;;;;4.75;4.00;;;;;18.85;67.06;101354.72;5056245;28;71305;-77
2022/08/05 04:54:30;;;;;;;;;4.50;3.75;;;;;18.88;67.67;101365.13;5057344;28;45433;-76
2022/08/05 04:56:56;;;;;;;;;4.00;4.00;;;;;18.80;67.11;101354.13;5056537;28;70281;-77
2022/08/05 04:59:21;;;;;;;;;4.00;4.00;;;;;18.83;67.32;101367.16;5056297;28;74563;-77
2022/08/05 05:01:48;;;;;;;;;8.50;5.00;;;;;18.86;67.00;101375.75;5057287;28;45483;-76
2022/08/05 05:04:13;;;;;;;;;3.00;3.00;;;;;18.84;67.46;101375.00;5045573;28;45467;-76
2022/08/05 05:06:39;;;;;;;;;6.50;4.75;;;;;18.77;67.35;101371.78;5077318;28;45434;-77
2022/08/05 05:09:04;;;;;;;;;6.50;6.00;;;;;18.87;68.03;101381.88;5077242;28;46420;-78
2022/08/05 05:11:29;;;;;;;;;5.00;4.00;;;;;18.84;67.53;101372.34;5077362;28;45432;-76
2022/08/05 05:13:55;;;;;;;;;7.00;5.00;;;;;18.84;67.97;101385.53;5076428;28;70389;-77
2022/08/05 05:16:20;;;;;;;;;6.25;6.25;;;;;18.89;67.36;101391.44;5076698;28;62628;-77
2022/08/05 05:18:45;;;;;;;;;6.25;4.50;;;;;18.95;67.72;101406.09;5076676;28;58140;-76
2022/08/05 05:21:11;;;;;;;;;4.75;4.50;;;;;18.94;67.56;101399.97;5075959;28;69623;-77
2022/08/05 05:23:36;;;;;;;;;3.75;2.75;;;;;19.00;67.01;101408.44;5077340;28;45324;-76
2022/08/05 05:26:01;;;;;;;;;4.00;4.00;;;;;19.05;67.51;101415.19;5077142;28;45404;-77
2022/08/05 05:28:27;;;;;;;;;5.75;5.00;;;;;19.01;67.24;101410.16;5076362;28;70340;-77
2022/08/05 05:30:52;;;;;;;;;5.00;4.00;;;;;19.07;66.75;101413.31;5072334;28;73243;-77
2022/08/05 05:33:17;;;;;;;;;8.50;5.00;;;;;19.06;67.51;101416.91;5057001;28;45378;-76
2022/08/05 05:35:44;;;;;;;;;5.25;4.00;;;;;19.06;67.02;101416.91;5055638;28;54033;-77
2022/08/05 05:38:09;;;;;;;;;5.00;3.75;;;;;19.00;67.18;101417.25;5038379;28;46409;-77
2022/08/05 05:40:35;;;;;;;;;7.00;4.75;;;;;18.97;66.74;101425.31;5055818;28;68877;-77
2022/08/05 05:43:00;;;;;;;;;5.00;4.00;;;;;19.00;66.47;101441.00;5038709;28;45400;-76
2022/08/05 05:45:25;;;;;;;;;5.00;5.00;;;;;18.94;67.10;101428.97;5055759;28;67976;-76
2022/08/05 05:47:51;;;;;;;;;4.50;4.00;;;;;18.95;66.50;101440.38;5056520;28;45425;-77
2022/08/05 05:50:17;;;;;;;;;5.75;4.75;;;;;18.86;66.46;101439.06;5038149;28;45330;-76
2022/08/05 05:52:43;;;;;;;;;4.25;3.75;;;;;18.83;67.03;101444.50;5056575;28;45402;-76
2022/08/05 05:55:11;;;;;;;;;5.00;5.00;;;;;18.74;66.77;101431.78;5056572;28;45318;-77
2022/08/05 05:57:37;;;;;;;;;5.75;4.00;;;;;18.72;68.07;101436.25;5056218;28;45430;-77
2022/08/05 06:00:05;;;;;;;;;4.50;4.25;;;;;18.74;66.63;101440.53;5056341;28;45843;-77
2022/08/05 06:02:30;;;;;;;;;8.00;4.25;;;;;18.69;67.13;101439.06;5056454;28;45522;-76
2022/08/05 06:04:55;;;;;;;;;6.00;4.00;;;;;18.68;67.31;101443.47;5067295;28;68657;-77
2022/08/05 06:07:21;;;;;;;;;5.50;5.00;;;;;18.77;67.58;101450.91;5075420;28;73657;-77
2022/08/05 06:09:46;;;;;;;;;7.00;3.00;;;;;18.80;67.05;101444.63;5075626;28;68418;-77
2022/08/05 06:12:11;;;;;;;;;6.50;5.00;;;;;18.84;66.99;101450.63;5075740;28;67278;-76
2022/08/05 06:14:37;;;;;;;;;8.00;5.00;;;;;18.91;66.32;101454.66;5075529;28;70226;-76
2022/08/05 06:17:02;;;;;;;;;6.50;5.00;;;;;18.86;66.56;101460.16;5076232;28;45429;-76
2022/08/05 06:19:28;;;;;;;;;5.00;4.75;;;;;18.88;66.52;101466.22;5057858;28;45439;-77
2022/08/05 06:21:53;;;;;;;;;5.00;3.50;;;;;18.93;66.56;101463.34;5076432;28;45555;-77
2022/08/05 06:24:19;;;;;;;;;6.75;5.50;;;;;18.88;66.62;101460.09;5075389;28;70380;-76
2022/08/05 06:26:44;;;;;;;;;7.75;4.25;;;;;18.88;66.58;101474.13;5076109;28;45946;-77
2022/08/05 06:29:10;;;;;;;;;5.00;3.00;;;;;18.85;66.29;101473.44;5076096;28;45383;-77
2022/08/05 06:31:36;;;;;;;;;9.00;5.50;;;;;18.80;66.41;101471.00;5048303;28;45469;-77
2022/08/05 06:34:03;;;;;;;;;6.00;3.50;;;;;18.70;66.50;101462.72;5055657;28;45352;-76
2022/08/05 06:36:28;;;;;;;;;6.75;5.00;;;;;18.73;66.23;101464.34;5055931;28;46464;-77
2022/08/05 06:38:53;;;;;;;;;5.25;3.75;;;;;18.73;66.21;101477.53;5054533;28;71716;-76
2022/08/05 06:41:20;;;;;;;;;3.75;2.75;;;;;18.72;66.47;101475.81;5037924;28;45465;-77
2022/08/05 06:43:45;;;;;;;;;4.50;4.25;;;;;18.79;66.31;101473.72;5055849;28;45381;-77
2022/08/05 06:46:11;;;;;;;;;6.25;5.25;;;;;18.86;66.21;101473.34;5055789;28;46002;-77
2022/08/05 06:48:36;;;;;;;;;6.00;5.00;;;;;18.89;66.58;101469.72;5054454;28;69673;-76
2022/08/05 06:51:02;;;;;;;;;4.50;4.00;;;;;18.93;65.90;101466.81;5055187;28;59739;-76
2022/08/05 06:53:28;;;;;;;;;5.25;5.00;;;;;18.97;65.88;101478.06;5055945;28;45340;-77
2022/08/05 06:55:53;;;;;;;;;7.50;5.00;;;;;19.04;65.70;101481.25;5054746;28;64257;-77
2022/08/05 06:58:19;;;;;;;;;6.50;6.00;;;;;19.11;66.21;101482.59;5055441;28;45214;-77
2022/08/05 07:00:44;;;;;;;;;9.75;6.25;;;;;19.09;65.48;101477.44;5054882;28;63299;-77
2022/08/05 07:03:09;;;;;;;;;7.00;5.00;;;;;19.17;65.28;101481.44;5054143;28;70476;-77
2022/08/05 07:05:34;;;;;;;;;8.00;5.00;;;;;19.23;65.36;101491.69;5071929;28;76653;-76
2022/08/05 07:08:00;;;;;;;;;5.25;4.00;;;;;19.27;65.25;101493.22;5056452;28;71838;-77
2022/08/05 07:10:25;;;;;;;;;6.00;4.25;;;;;19.29;64.58;101488.69;5074815;28;67147;-77
2022/08/05 07:18:18;;;;;;;;;8.00;5.00;;;;;19.42;64.54;101495.03;5075252;28;45609;-77
2022/08/05 07:20:44;;;;;;;;;4.00;4.00;;;;;19.41;64.70;101503.03;5074605;28;68977;-77
2022/08/05 07:23:09;;;;;;;;;7.00;5.50;;;;;19.42;64.96;101502.09;5074448;28;68992;-77
2022/08/05 07:25:34;;;;;;;;;8.25;4.75;;;;;19.52;65.07;101503.31;5086234;27;67839;-77
2022/08/05 07:28:00;;;;;;;;;5.25;5.00;;;;;19.58;64.73;101513.53;5075215;27;49763;-77
2022/08/05 07:30:25;;;;;;;;;7.00;6.00;;;;;19.65;64.04;101517.56;5075102;27;45488;-77
2022/08/05 07:32:50;;;;;;;;;9.00;7.25;;;;;19.65;63.95;101507.00;5075289;28;45389;-77
2022/08/05 07:35:16;;;;;;;;;8.50;7.00;;;;;19.65;64.17;101506.13;5075192;28;51216;-77
2022/08/05 07:37:41;;;;;;;;;6.75;6.00;;;;;19.74;64.47;101524.13;5074518;28;59725;-75
2022/08/05 07:40:07;;;;;;;;;7.50;7.00;;;;;19.81;64.67;101520.22;5108327;27;45340;-77
2022/08/05 07:42:32;;;;;;;;;6.75;6.75;;;;;19.90;64.38;101522.34;5075321;27;45426;-77
2022/08/05 07:44:58;;;;;;;;;7.75;7.50;;;;;19.92;63.83;101519.63;5090357;27;46726;-77
2022/08/05 07:47:23;;;;;;;;;9.00;7.25;;;;;20.02;63.92;101525.25;5075255;28;45513;-77
2022/08/05 07:49:51;;;;;;;;;8.00;6.75;;;;;20.07;64.05;101517.91;5075319;28;45415;-77
2022/08/05 07:52:17;;;;;;;;;10.75;7.25;;;;;20.22;64.13;101532.03;5073899;28;45380;-77
2022/08/05 07:54:43;;;;;;;;;6.25;6.25;;;;;20.28;63.52;101543.13;5075217;28;46345;-77
2022/08/05 07:57:08;;;;;;;;;7.50;7.00;;;;;20.37;63.31;101543.53;5074279;28;64867;-77
2022/08/05 07:59:33;;;;;;;;;11.25;8.75;;;;;20.37;63.46;101549.66;5075777;28;45390;-77
2022/08/05 08:01:59;;;;;;;;;7.00;7.00;;;;;20.39;62.66;101547.81;5078981;28;45469;-77
2022/08/05 08:04:24;;;;;;;;;8.50;7.25;;;;;20.46;62.22;101559.72;5078415;27;47287;-77
2022/08/05 08:06:49;;;;;;;;;9.50;8.25;;;;;20.48;62.61;101560.47;5077846;27;72270;-77
2022/08/05 08:09:15;;;;;;;;;8.00;6.75;;;;;20.44;62.05;101558.97;5078667;28;45373;-77
2022/08/05 08:11:40;;;;;;;;;10.00;7.50;;;;;20.48;62.71;101567.56;5078825;27;45511;-77
2022/08/05 08:14:05;;;;;;;;;11.00;8.50;;;;;20.50;62.37;101563.03;5077401;27;74561;-77
2022/08/05 08:16:31;;;;;;;;;6.75;6.75;;;;;20.58;62.47;101570.53;5093348;27;71402;-77
2022/08/05 08:18:56;;;;;;;;;7.00;5.00;;;;;20.66;61.63;101570.97;5078743;27;45930;-77
2022/08/05 08:21:21;;;;;;;;;6.00;5.75;;;;;20.73;62.13;101571.47;5078548;28;45304;-77
2022/08/05 08:23:47;;;;;;;;;7.00;6.00;;;;;20.78;61.20;101572.94;5077277;27;75384;-77
2022/08/05 08:26:12;;;;;;;;;6.75;6.25;;;;;20.91;61.02;101577.47;5078244;28;45380;-77
2022/08/05 08:28:37;;;;;;;;;6.75;6.00;;;;;20.97;60.66;101579.75;5076974;28;69327;-77
2022/08/05 08:31:06;;;;;;;;;8.50;5.00;;;;;20.98;60.99;101577.00;5072089;28;66847;-77
2022/08/05 08:33:32;;;;;;;;;5.75;5.75;;;;;21.05;60.33;101588.09;5039834;28;45696;-77
2022/08/05 08:35:57;;;;;;;;;8.25;5.00;;;;;21.11;59.71;101586.88;5057641;28;47596;-77
2022/08/05 08:38:22;;;;;;;;;6.00;6.00;;;;;21.12;59.30;101580.63;5056965;28;61312;-78
2022/08/05 08:40:48;;;;;;;;;5.50;5.50;;;;;21.14;59.35;101592.00;5057118;28;65494;-77
2022/08/05 08:43:15;;;;;;;;;4.50;4.00;;;;;21.21;59.15;101588.88;5056560;28;68495;-77
2022/08/05 08:45:42;;;;;;;;;7.00;4.75;;;;;21.26;58.57;101593.88;5057715;28;45902;-77
2022/08/05 08:48:10;;;;;;;;;9.00;6.00;;;;;21.28;58.84;101592.00;5058028;28;45411;-77
2022/08/05 08:50:39;;;;;;;;;7.00;5.25;;;;;21.33;59.10;101589.94;5039757;28;45638;-77
2022/08/05 08:53:05;;;;;;;;;5.25;4.25;;;;;21.37;59.05;101594.09;5057843;28;45417;-77
2022/08/05 08:55:32;;;;;;;;;4.00;4.00;;;;;21.46;58.78;101598.00;5039583;28;45714;-77
2022/08/05 08:57:59;;;;;;;;;5.50;5.25;;;;;21.52;58.71;101599.44;5039349;28;45386;-77
2022/08/05 09:00:25;;;;;;;;;8.75;6.00;;;;;21.59;58.86;101608.72;5057623;28;45353;-77
2022/08/05 09:02:52;;;;;;;;;7.00;5.25;;;;;21.63;58.51;101610.22;5057438;28;46131;-77
2022/08/05 09:05:18;;;;;;;;;5.75;4.75;;;;;21.73;58.03;101613.13;5072882;28;45144;-77
2022/08/05 09:07:43;;;;;;;;;6.50;6.50;;;;;21.73;57.63;101613.13;5077736;28;45361;-77
2022/08/05 09:10:08;;;;;;;;;5.75;5.75;;;;;21.81;57.12;101610.88;5076747;28;66945;-77
2022/08/05 09:12:35;;;;;;;;;8.50;5.25;;;;;21.86;56.58;101614.09;5075950;28;47117;-77
2022/08/05 09:15:04;;;;;;;;;8.50;7.00;;;;;21.93;56.68;101610.09;5077446;28;45507;-77
2022/08/05 09:17:31;;;;;;;;;9.25;7.25;;;;;22.01;56.49;101618.44;5077568;28;45319;-77
2022/08/05 09:20:00;;;;;;;;;7.75;6.75;;;;;22.02;56.71;101620.13;5077371;28;45428;-77
2022/08/05 09:22:25;;;;;;;;;8.00;8.00;;;;;22.08;56.34;101621.53;5077182;28;47343;-77
2022/08/05 09:25:01;;;;;;;;;7.00;5.50;;;;;22.12;56.48;101612.44;5077250;28;45411;-77
2022/08/05 09:27:35;;;;;;;;;8.50;5.00;;;;;22.28;56.24;101624.75;5077338;28;45496;-78
2022/08/05 09:30:00;;;;;;;;;5.00;5.00;;;;;22.37;56.44;101629.47;5077365;28;45471;-77
2022/08/05 09:32:37;;;;;;;;;7.75;4.25;;;;;22.49;55.18;101633.09;5060475;28;47001;-77
2022/08/05 09:35:14;;;;;;;;;7.00;6.75;;;;;22.57;55.28;101621.06;5056901;28;45455;-77
2022/08/05 09:37:54;;;;;;;;;7.75;4.75;;;;;22.59;54.10;101608.53;5056975;28;45327;-77
2022/08/05 09:40:30;;;;;;;;;9.50;6.00;;;;;22.72;54.74;101616.53;5056952;28;45435;-77
2022/08/05 09:42:56;;;;;;;;;9.00;8.00;;;;;22.85;54.48;101621.03;5056463;28;46078;-77
2022/08/05 09:45:32;;;;;;;;;6.00;5.00;;;;;;;;5056297;28;61541;-78
2022/08/05 09:47:58;;;;;;;;;10.50;7.00;;;;;23.10;54.04;101613.13;5057046;28;45365;-77
2022/08/05 09:50:34;;;;;;;;;6.50;5.50;;;;;23.26;53.37;101618.25;5056073;28;62892;-77
2022/08/05 09:52:59;;;;;;;;;6.50;5.50;;;;;23.40;52.37;101622.59;5056674;28;46526;-77
2022/08/05 09:55:25;;;;;;;;;8.25;6.75;;;;;23.49;52.76;101624.63;5055221;28;73123;-77
2022/08/05 09:57:50;;;;;;;;;9.75;7.50;;;;;23.63;52.60;101620.16;5055538;28;69328;-77
2022/08/05 10:00:19;;;;;;;;;9.00;6.75;;;;;23.74;51.24;101621.09;5056683;28;45520;-77
2022/08/05 10:02:46;;;;;;;;;8.75;6.00;;;;;23.80;51.60;101621.66;5056284;28;46945;-78
2022/08/05 10:05:17;;;;;;;;;8.50;8.00;;;;;23.79;51.06;101618.13;5070883;28;45692;-77
2022/08/05 10:07:48;;;;;;;;;10.50;6.50;;;;;23.78;51.50;101625.22;5058611;28;45351;-77
2022/08/05 10:10:14;;;;;;;;;10.00;7.00;;;;;23.75;51.29;101612.19;5076512;28;45382;-78
2022/08/05 10:12:51;;;;;;;;;12.50;7.00;;;;;23.74;51.56;101612.28;5058549;28;45458;-77
2022/08/05 10:15:30;;;;;;;;;9.25;8.75;;;;;23.81;50.96;101618.03;5075388;28;45716;-78
2022/08/05 10:18:25;;;;;;;;;8.00;7.00;;;;;23.87;50.74;101625.59;5076535;28;45304;-78
2022/08/05 10:20:55;;;;;;;;;8.00;6.75;;;;;23.88;50.70;101617.47;5076469;28;45570;-78
2022/08/05 10:23:26;;;;;;;;;7.00;7.00;;;;;23.92;50.76;101612.78;5076182;28;46471;-78
2022/08/05 10:25:53;;;;;;;;;10.75;7.75;;;;;24.05;49.02;101618.09;5073081;28;45856;-78
2022/08/05 10:28:19;;;;;;;;;7.75;7.75;;;;;24.13;49.86;101616.56;5076361;28;45405;-78
2022/08/05 10:30:44;;;;;;;;;8.75;7.75;;;;;24.32;48.98;101621.41;5076327;28;45411;-78
2022/08/05 10:33:10;;;;;;;;;9.75;6.75;;;;;24.54;49.05;101614.53;5075224;28;67131;-78
2022/08/05 10:35:36;;;;;;;;;6.50;6.50;;;;;24.70;48.56;101624.88;5076365;28;45238;-78
2022/08/05 10:38:02;;;;;;;;;5.00;5.00;;;;;24.84;47.56;101619.38;5076353;28;45334;-78
2022/08/05 10:40:32;;;;;;;;;9.00;6.50;;;;;24.99;47.27;101628.00;5075939;28;45470;-78
2022/08/05 10:43:08;;;;;;;;;7.00;7.00;;;;;25.11;46.93;101610.22;5076175;28;46446;-78
2022/08/05 10:45:34;;;;;;;;;8.25;7.00;;;;;25.24;46.83;101616.38;5091517;27;45765;-78
2022/08/05 10:48:38;;;;;;;;;6.00;6.00;;;;;25.48;46.66;101631.41;5076292;28;45418;-78
2022/08/05 10:51:13;;;;;;;;;7.25;6.00;;;;;25.67;46.28;101631.66;5076190;28;45351;-78
2022/08/05 10:53:42;;;;;;;;;6.75;6.75;;;;;25.69;46.71;101621.72;5075771;28;46487;-78
2022/08/05 10:56:13;;;;;;;;;8.75;8.00;;;;;25.61;45.91;101631.28;5076114;28;45759;-78
2022/08/05 10:58:57;;;;;;;;;6.75;6.00;;;;;25.59;46.39;101635.88;5076131;28;45526;-78
2022/08/05 11:01:28;;;;;;;;;8.75;5.25;;;;;25.63;46.44;101637.34;5076124;28;45348;-78
2022/08/05 11:04:07;;;;;;;;;7.75;6.00;;;;;25.78;45.83;101637.94;5075583;27;45774;-78
2022/08/05 11:06:34;;;;;;;;;10.00;6.50;;;;;26.00;45.12;101646.00;5075784;27;45372;-78
2022/08/05 11:09:19;;;;;;;;;11.25;7.00;;;;;26.26;45.02;101640.34;5074217;28;45462;-78
2022/08/05 11:11:46;;;;;;;;;12.25;7.00;;;;;26.38;44.61;101646.53;5076015;27;45381;-78
2022/08/05 11:14:12;;;;;;;;;8.25;7.00;;;;;26.37;43.44;101650.97;5075704;28;45451;-78
2022/08/05 11:16:38;;;;;;;;;7.75;6.25;;;;;26.34;42.95;101653.94;5075907;28;45369;-78
2022/08/05 11:19:24;;;;;;;;;6.00;6.00;;;;;26.36;42.74;101648.47;5075699;28;45291;-78
2022/08/05 11:21:49;;;;;;;;;7.75;5.25;;;;;26.52;42.37;101653.38;5075785;27;45483;-78
2022/08/05 11:24:14;;;;;;;;;6.00;6.00;;;;;26.70;41.86;101649.22;5072730;28;72972;-78
2022/08/05 11:26:40;;;;;;;;;4.50;4.50;;;;;26.83;41.44;101652.56;5074074;28;51632;-78
2022/08/05 11:29:05;;;;;;;;;7.75;7.00;;;;;26.90;41.75;101652.06;5074432;28;45518;-78
2022/08/05 11:31:31;;;;;;;;;8.75;5.50;;;;;26.89;41.09;101659.22;5075409;28;45379;-78